Cordell Hull Observed Data For Previous 48 Hours

Caption
Day and Hour Reservoir Elevation (behind dam)* Tailwater Elevation (below dam)* Average Hourly Discharge*
9/20/2018 1 AM CDT 503.55 444.75 0
9/20/2018 2 AM CDT 503.58 444.68 0
9/20/2018 3 AM CDT 503.60 444.50 0
9/20/2018 4 AM CDT 503.62 444.32 0
9/20/2018 5 AM CDT 503.66 444.16 0
9/20/2018 6 AM CDT 503.55 445.65 7,410
9/20/2018 7 AM CDT 503.41 448.41 15,600
9/20/2018 8 AM CDT 503.43 449.03 15,720
9/20/2018 9 AM CDT 503.40 449.40 15,800
9/20/2018 10 AM CDT 503.32 449.72 15,960
9/20/2018 11 AM CDT 503.26 450.16 16,160
9/20/2018 12 PM CDT 503.18 450.08 16,160
9/20/2018 1 PM CDT 503.13 450.13 16,200
9/20/2018 2 PM CDT 503.10 450.20 16,230
9/20/2018 3 PM CDT 503.06 450.16 16,230
9/20/2018 4 PM CDT 503.03 450.13 16,230
9/20/2018 5 PM CDT 502.99 450.19 16,260
9/20/2018 6 PM CDT 502.97 450.27 16,290
9/20/2018 7 PM CDT 502.95 450.25 16,260
9/20/2018 8 PM CDT 502.94 450.24 16,260
9/20/2018 9 PM CDT 502.92 450.22 16,290
9/20/2018 10 PM CDT 503.02 448.32 7,830
9/20/2018 11 PM CDT 503.19 446.49 0
9/21/2018 12 AM CDT 503.22 445.52 0
9/21/2018 1 AM CDT 503.30 444.80 0
9/21/2018 2 AM CDT 503.35 444.65 0
9/21/2018 3 AM CDT 503.40 444.40 0
9/21/2018 4 AM CDT 503.45 444.25 0
9/21/2018 5 AM CDT 503.50 444.10 0
9/21/2018 6 AM CDT 503.56 444.06 0
9/21/2018 7 AM CDT 503.62 444.02 0
9/21/2018 8 AM CDT 503.49 445.69 7,420
9/21/2018 9 AM CDT 503.40 448.50 15,620
9/21/2018 10 AM CDT 503.45 449.15 15,740
9/21/2018 11 AM CDT 503.45 449.65 15,880
9/21/2018 12 PM CDT 503.41 449.81 15,960
9/21/2018 1 PM CDT 503.36 450.06 16,080
9/21/2018 2 PM CDT 503.31 450.11 16,120
9/21/2018 3 PM CDT 503.27 450.07 16,120
9/21/2018 4 PM CDT 503.27 450.07 16,120
9/21/2018 5 PM CDT 503.25 450.05 16,120
9/21/2018 6 PM CDT 503.24 450.14 16,160
9/21/2018 7 PM CDT 503.22 450.12 16,160
9/21/2018 8 PM CDT 503.42 448.12 7,755
9/21/2018 9 PM CDT 503.55 446.25 0
9/21/2018 10 PM CDT 503.59 445.39 0
9/21/2018 11 PM CDT 503.66 444.96 0
9/22/2018 12 AM CDT 503.71 444.71 0
9/22/2018 1 AM CDT 503.75 444.35 0
9/22/2018 2 AM CDT 503.82 444.22 0
9/22/2018 3 AM CDT 503.89 444.19 0
9/22/2018 4 AM CDT 503.96 444.16 0
9/22/2018 5 AM CDT 503.87 446.07 7,420
9/22/2018 6 AM CDT 503.91 446.41 7,450
9/22/2018 7 AM CDT 504.14 444.84 0
9/22/2018 8 AM CDT 504.12 444.52 0
9/22/2018 9 AM CDT 504.13 444.43 0
9/22/2018 10 AM CDT 504.10 445.60 7,350
9/22/2018 11 AM CDT 503.98 448.28 15,390
9/22/2018 12 PM CDT 503.99 448.99 15,600
9/22/2018 1 PM CDT 504.01 449.31 15,660
9/22/2018 2 PM CDT 503.98 449.58 15,720
9/22/2018 3 PM CDT 504.00 449.80 15,760

Elevations are in feet above sea level. Discharges are in cubic feet per second and are reported at the end of the hour.